sensor_id;sensor_type;location;lat;lon;timestamp;P1;durP1;ratioP1;P2;durP2;ratioP2
55497;SDS011;41357;52.806;18.268;2023-10-13T00:01:01;20.77;;;4.97;;
55497;SDS011;41357;52.806;18.268;2023-10-13T00:03:30;14.10;;;6.10;;
55497;SDS011;41357;52.806;18.268;2023-10-13T00:05:59;12.13;;;4.40;;
55497;SDS011;41357;52.806;18.268;2023-10-13T00:08:29;13.18;;;5.05;;
55497;SDS011;41357;52.806;18.268;2023-10-13T00:10:55;11.70;;;4.88;;
55497;SDS011;41357;52.806;18.268;2023-10-13T00:13:28;13.00;;;5.88;;
55497;SDS011;41357;52.806;18.268;2023-10-13T00:16:00;17.25;;;4.65;;
55497;SDS011;41357;52.806;18.268;2023-10-13T00:18:31;13.25;;;4.95;;
55497;SDS011;41357;52.806;18.268;2023-10-13T00:21:00;15.85;;;6.30;;
55497;SDS011;41357;52.806;18.268;2023-10-13T00:23:38;15.95;;;5.43;;
55497;SDS011;41357;52.806;18.268;2023-10-13T00:26:04;11.55;;;5.75;;
55497;SDS011;41357;52.806;18.268;2023-10-13T00:28:34;21.05;;;5.50;;
55497;SDS011;41357;52.806;18.268;2023-10-13T00:31:01;14.05;;;5.45;;
55497;SDS011;41357;52.806;18.268;2023-10-13T00:33:36;11.38;;;4.97;;
55497;SDS011;41357;52.806;18.268;2023-10-13T00:36:03;16.50;;;5.78;;
55497;SDS011;41357;52.806;18.268;2023-10-13T00:38:30;15.70;;;5.47;;
55497;SDS011;41357;52.806;18.268;2023-10-13T00:40:57;17.23;;;6.13;;
55497;SDS011;41357;52.806;18.268;2023-10-13T00:43:32;18.77;;;6.20;;
55497;SDS011;41357;52.806;18.268;2023-10-13T00:46:00;15.25;;;6.38;;
55497;SDS011;41357;52.806;18.268;2023-10-13T00:48:33;16.52;;;7.20;;
55497;SDS011;41357;52.806;18.268;2023-10-13T00:51:04;12.40;;;5.95;;
55497;SDS011;41357;52.806;18.268;2023-10-13T00:53:41;19.83;;;6.28;;
55497;SDS011;41357;52.806;18.268;2023-10-13T00:56:09;23.30;;;5.82;;
55497;SDS011;41357;52.806;18.268;2023-10-13T00:58:47;14.88;;;5.78;;
55497;SDS011;41357;52.806;18.268;2023-10-13T01:01:18;14.65;;;6.32;;
55497;SDS011;41357;52.806;18.268;2023-10-13T01:03:51;22.52;;;6.50;;
55497;SDS011;41357;52.806;18.268;2023-10-13T01:06:24;14.45;;;5.95;;
55497;SDS011;41357;52.806;18.268;2023-10-13T01:08:58;23.10;;;5.85;;
55497;SDS011;41357;52.806;18.268;2023-10-13T01:11:38;18.25;;;5.60;;
55497;SDS011;41357;52.806;18.268;2023-10-13T01:14:04;23.05;;;7.88;;
55497;SDS011;41357;52.806;18.268;2023-10-13T01:16:30;18.75;;;6.15;;
55497;SDS011;41357;52.806;18.268;2023-10-13T01:18:56;23.17;;;6.50;;
55497;SDS011;41357;52.806;18.268;2023-10-13T01:21:26;19.92;;;6.82;;
55497;SDS011;41357;52.806;18.268;2023-10-13T01:23:53;20.13;;;6.95;;
55497;SDS011;41357;52.806;18.268;2023-10-13T01:26:19;15.15;;;5.50;;
55497;SDS011;41357;52.806;18.268;2023-10-13T01:28:56;17.65;;;6.57;;
55497;SDS011;41357;52.806;18.268;2023-10-13T01:31:23;20.73;;;5.13;;
55497;SDS011;41357;52.806;18.268;2023-10-13T01:36:22;11.93;;;4.82;;
55497;SDS011;41357;52.806;18.268;2023-10-13T01:38:48;12.05;;;4.63;;
55497;SDS011;41357;52.806;18.268;2023-10-13T01:41:15;13.63;;;5.18;;
55497;SDS011;41357;52.806;18.268;2023-10-13T01:43:41;9.32;;;4.38;;
55497;SDS011;41357;52.806;18.268;2023-10-13T01:46:08;14.77;;;4.72;;
55497;SDS011;41357;52.806;18.268;2023-10-13T01:48:35;16.15;;;4.97;;
55497;SDS011;41357;52.806;18.268;2023-10-13T01:51:05;11.88;;;4.28;;
55497;SDS011;41357;52.806;18.268;2023-10-13T01:53:35;15.73;;;4.65;;
55497;SDS011;41357;52.806;18.268;2023-10-13T01:56:01;11.23;;;4.68;;
55497;SDS011;41357;52.806;18.268;2023-10-13T01:58:30;11.90;;;4.55;;
55497;SDS011;41357;52.806;18.268;2023-10-13T02:00:56;18.25;;;4.28;;
55497;SDS011;41357;52.806;18.268;2023-10-13T02:03:24;16.92;;;4.22;;
55497;SDS011;41357;52.806;18.268;2023-10-13T02:05:55;16.45;;;4.97;;
55497;SDS011;41357;52.806;18.268;2023-10-13T02:08:23;12.30;;;4.35;;
55497;SDS011;41357;52.806;18.268;2023-10-13T02:10:50;12.13;;;4.93;;
55497;SDS011;41357;52.806;18.268;2023-10-13T02:13:17;15.15;;;5.15;;
55497;SDS011;41357;52.806;18.268;2023-10-13T02:15:44;17.30;;;4.63;;
55497;SDS011;41357;52.806;18.268;2023-10-13T02:18:16;17.35;;;5.07;;
55497;SDS011;41357;52.806;18.268;2023-10-13T02:20:46;11.15;;;4.45;;
55497;SDS011;41357;52.806;18.268;2023-10-13T02:23:19;14.30;;;5.07;;
55497;SDS011;41357;52.806;18.268;2023-10-13T02:25:46;14.10;;;5.53;;
55497;SDS011;41357;52.806;18.268;2023-10-13T02:28:12;7.93;;;4.18;;
55497;SDS011;41357;52.806;18.268;2023-10-13T02:30:42;15.90;;;6.03;;
55497;SDS011;41357;52.806;18.268;2023-10-13T02:33:15;6.88;;;3.42;;
55497;SDS011;41357;52.806;18.268;2023-10-13T02:35:47;7.90;;;4.05;;
55497;SDS011;41357;52.806;18.268;2023-10-13T02:38:19;8.52;;;3.47;;
55497;SDS011;41357;52.806;18.268;2023-10-13T02:40:53;8.13;;;4.13;;
55497;SDS011;41357;52.806;18.268;2023-10-13T02:43:20;7.93;;;3.75;;
55497;SDS011;41357;52.806;18.268;2023-10-13T02:45:54;9.25;;;4.30;;
55497;SDS011;41357;52.806;18.268;2023-10-13T02:48:26;10.07;;;4.00;;
55497;SDS011;41357;52.806;18.268;2023-10-13T02:50:59;14.55;;;4.22;;
55497;SDS011;41357;52.806;18.268;2023-10-13T02:53:32;12.38;;;4.00;;
55497;SDS011;41357;52.806;18.268;2023-10-13T02:55:58;11.00;;;4.35;;
55497;SDS011;41357;52.806;18.268;2023-10-13T02:58:30;15.68;;;4.45;;
55497;SDS011;41357;52.806;18.268;2023-10-13T03:01:11;14.52;;;5.57;;
55497;SDS011;41357;52.806;18.268;2023-10-13T03:03:43;12.82;;;5.82;;
55497;SDS011;41357;52.806;18.268;2023-10-13T03:06:12;17.75;;;5.75;;
55497;SDS011;41357;52.806;18.268;2023-10-13T03:08:39;12.93;;;4.30;;
55497;SDS011;41357;52.806;18.268;2023-10-13T03:11:05;14.23;;;5.60;;
55497;SDS011;41357;52.806;18.268;2023-10-13T03:13:34;13.95;;;6.15;;
55497;SDS011;41357;52.806;18.268;2023-10-13T03:16:01;17.05;;;6.22;;
55497;SDS011;41357;52.806;18.268;2023-10-13T03:18:29;12.10;;;5.43;;
55497;SDS011;41357;52.806;18.268;2023-10-13T03:20:59;15.05;;;6.43;;
55497;SDS011;41357;52.806;18.268;2023-10-13T03:23:27;17.15;;;7.10;;
55497;SDS011;41357;52.806;18.268;2023-10-13T03:25:53;16.90;;;8.25;;
55497;SDS011;41357;52.806;18.268;2023-10-13T03:28:21;34.40;;;8.82;;
55497;SDS011;41357;52.806;18.268;2023-10-13T03:30:51;18.83;;;9.02;;
55497;SDS011;41357;52.806;18.268;2023-10-13T03:33:20;35.08;;;11.63;;
55497;SDS011;41357;52.806;18.268;2023-10-13T03:35:53;45.60;;;10.52;;
55497;SDS011;41357;52.806;18.268;2023-10-13T03:38:19;40.85;;;10.60;;
55497;SDS011;41357;52.806;18.268;2023-10-13T03:40:52;30.08;;;8.70;;
55497;SDS011;41357;52.806;18.268;2023-10-13T03:43:32;38.75;;;8.02;;
55497;SDS011;41357;52.806;18.268;2023-10-13T03:46:00;35.67;;;7.65;;
55497;SDS011;41357;52.806;18.268;2023-10-13T03:48:32;20.13;;;7.18;;
55497;SDS011;41357;52.806;18.268;2023-10-13T03:51:16;19.95;;;7.22;;
55497;SDS011;41357;52.806;18.268;2023-10-13T03:53:43;27.65;;;7.63;;
55497;SDS011;41357;52.806;18.268;2023-10-13T03:56:25;20.50;;;6.53;;
55497;SDS011;41357;52.806;18.268;2023-10-13T03:58:53;19.35;;;6.63;;
55497;SDS011;41357;52.806;18.268;2023-10-13T04:01:22;19.33;;;7.15;;
55497;SDS011;41357;52.806;18.268;2023-10-13T04:03:59;17.17;;;7.30;;
55497;SDS011;41357;52.806;18.268;2023-10-13T04:06:32;21.02;;;6.78;;
55497;SDS011;41357;52.806;18.268;2023-10-13T04:09:15;23.42;;;6.78;;
55497;SDS011;41357;52.806;18.268;2023-10-13T04:11:57;20.27;;;6.63;;
55497;SDS011;41357;52.806;18.268;2023-10-13T04:14:26;25.73;;;7.18;;
55497;SDS011;41357;52.806;18.268;2023-10-13T04:17:07;31.08;;;5.90;;
55497;SDS011;41357;52.806;18.268;2023-10-13T04:22:25;33.20;;;7.13;;
55497;SDS011;41357;52.806;18.268;2023-10-13T04:25:05;31.20;;;6.22;;
55497;SDS011;41357;52.806;18.268;2023-10-13T04:27:52;16.02;;;4.97;;
55497;SDS011;41357;52.806;18.268;2023-10-13T04:33:20;22.15;;;5.88;;
55497;SDS011;41357;52.806;18.268;2023-10-13T04:36:10;22.83;;;5.82;;
55497;SDS011;41357;52.806;18.268;2023-10-13T04:38:51;23.10;;;6.25;;
55497;SDS011;41357;52.806;18.268;2023-10-13T04:41:33;27.00;;;6.60;;
55497;SDS011;41357;52.806;18.268;2023-10-13T04:44:17;19.40;;;6.05;;
55497;SDS011;41357;52.806;18.268;2023-10-13T04:46:58;31.20;;;7.50;;
55497;SDS011;41357;52.806;18.268;2023-10-13T04:49:24;32.90;;;8.73;;
55497;SDS011;41357;52.806;18.268;2023-10-13T04:52:00;26.40;;;8.10;;
55497;SDS011;41357;52.806;18.268;2023-10-13T04:57:14;31.13;;;8.15;;
55497;SDS011;41357;52.806;18.268;2023-10-13T04:59:54;27.48;;;8.40;;
55497;SDS011;41357;52.806;18.268;2023-10-13T05:02:34;19.02;;;7.72;;
55497;SDS011;41357;52.806;18.268;2023-10-13T05:05:01;36.05;;;7.20;;
55497;SDS011;41357;52.806;18.268;2023-10-13T05:07:30;21.88;;;6.85;;
55497;SDS011;41357;52.806;18.268;2023-10-13T05:10:10;15.30;;;6.68;;
55497;SDS011;41357;52.806;18.268;2023-10-13T05:12:50;19.98;;;7.63;;
55497;SDS011;41357;52.806;18.268;2023-10-13T05:15:30;20.20;;;8.07;;
55497;SDS011;41357;52.806;18.268;2023-10-13T05:18:10;19.15;;;7.80;;
55497;SDS011;41357;52.806;18.268;2023-10-13T05:20:54;18.73;;;7.75;;
55497;SDS011;41357;52.806;18.268;2023-10-13T05:23:34;12.32;;;5.95;;
55497;SDS011;41357;52.806;18.268;2023-10-13T05:26:14;13.15;;;6.35;;
55497;SDS011;41357;52.806;18.268;2023-10-13T05:28:54;13.40;;;5.50;;
55497;SDS011;41357;52.806;18.268;2023-10-13T05:31:34;11.20;;;5.15;;
55497;SDS011;41357;52.806;18.268;2023-10-13T05:34:14;8.60;;;4.78;;
55497;SDS011;41357;52.806;18.268;2023-10-13T05:36:54;12.25;;;5.30;;
55497;SDS011;41357;52.806;18.268;2023-10-13T05:39:34;9.75;;;4.70;;
55497;SDS011;41357;52.806;18.268;2023-10-13T05:42:29;11.38;;;4.82;;
55497;SDS011;41357;52.806;18.268;2023-10-13T05:45:10;10.30;;;4.93;;
55497;SDS011;41357;52.806;18.268;2023-10-13T05:47:40;13.60;;;5.47;;
55497;SDS011;41357;52.806;18.268;2023-10-13T05:50:15;9.88;;;5.55;;
55497;SDS011;41357;52.806;18.268;2023-10-13T05:52:45;14.07;;;6.00;;
55497;SDS011;41357;52.806;18.268;2023-10-13T05:55:21;12.65;;;5.63;;
55497;SDS011;41357;52.806;18.268;2023-10-13T05:58:01;12.65;;;5.40;;
55497;SDS011;41357;52.806;18.268;2023-10-13T06:00:41;11.85;;;5.38;;
55497;SDS011;41357;52.806;18.268;2023-10-13T06:03:21;12.57;;;5.60;;
55497;SDS011;41357;52.806;18.268;2023-10-13T06:06:01;12.93;;;6.13;;
55497;SDS011;41357;52.806;18.268;2023-10-13T06:08:41;13.85;;;5.15;;
55497;SDS011;41357;52.806;18.268;2023-10-13T06:11:30;12.68;;;6.30;;
55497;SDS011;41357;52.806;18.268;2023-10-13T06:14:10;19.70;;;6.35;;
55497;SDS011;41357;52.806;18.268;2023-10-13T06:16:51;13.52;;;7.03;;
55497;SDS011;41357;52.806;18.268;2023-10-13T06:19:31;19.75;;;7.85;;
55497;SDS011;41357;52.806;18.268;2023-10-13T06:22:11;19.65;;;8.48;;
55497;SDS011;41357;52.806;18.268;2023-10-13T06:24:51;20.10;;;8.13;;
55497;SDS011;41357;52.806;18.268;2023-10-13T06:27:31;19.52;;;8.77;;
55497;SDS011;41357;52.806;18.268;2023-10-13T06:30:10;21.40;;;8.50;;
55497;SDS011;41357;52.806;18.268;2023-10-13T06:32:37;18.20;;;8.40;;
55497;SDS011;41357;52.806;18.268;2023-10-13T06:35:06;16.45;;;8.48;;
55497;SDS011;41357;52.806;18.268;2023-10-13T06:37:33;20.30;;;9.05;;
55497;SDS011;41357;52.806;18.268;2023-10-13T06:40:00;24.08;;;10.65;;
55497;SDS011;41357;52.806;18.268;2023-10-13T06:42:39;27.90;;;9.88;;
55497;SDS011;41357;52.806;18.268;2023-10-13T06:45:09;24.35;;;9.95;;
55497;SDS011;41357;52.806;18.268;2023-10-13T06:47:37;29.67;;;10.45;;
55497;SDS011;41357;52.806;18.268;2023-10-13T06:50:08;25.95;;;10.05;;
55497;SDS011;41357;52.806;18.268;2023-10-13T06:52:48;28.85;;;11.40;;
55497;SDS011;41357;52.806;18.268;2023-10-13T06:55:15;37.97;;;12.07;;
55497;SDS011;41357;52.806;18.268;2023-10-13T06:57:53;30.60;;;13.82;;
55497;SDS011;41357;52.806;18.268;2023-10-13T07:00:24;26.95;;;11.13;;
55497;SDS011;41357;52.806;18.268;2023-10-13T07:03:15;26.52;;;11.13;;
55497;SDS011;41357;52.806;18.268;2023-10-13T07:05:44;30.40;;;12.30;;
55497;SDS011;41357;52.806;18.268;2023-10-13T07:08:14;26.83;;;11.95;;
55497;SDS011;41357;52.806;18.268;2023-10-13T07:10:48;30.02;;;12.75;;
55497;SDS011;41357;52.806;18.268;2023-10-13T07:13:16;31.42;;;11.60;;
55497;SDS011;41357;52.806;18.268;2023-10-13T07:15:42;24.40;;;10.15;;
55497;SDS011;41357;52.806;18.268;2023-10-13T07:18:13;26.67;;;12.23;;
55497;SDS011;41357;52.806;18.268;2023-10-13T07:20:41;32.08;;;12.02;;
55497;SDS011;41357;52.806;18.268;2023-10-13T07:23:10;21.48;;;11.50;;
55497;SDS011;41357;52.806;18.268;2023-10-13T07:25:42;24.73;;;11.40;;
55497;SDS011;41357;52.806;18.268;2023-10-13T07:28:09;31.10;;;11.90;;
55497;SDS011;41357;52.806;18.268;2023-10-13T07:30:35;25.55;;;9.70;;
55497;SDS011;41357;52.806;18.268;2023-10-13T07:33:13;29.65;;;11.27;;
55497;SDS011;41357;52.806;18.268;2023-10-13T07:35:39;30.98;;;10.15;;
55497;SDS011;41357;52.806;18.268;2023-10-13T07:38:06;22.98;;;10.60;;
55497;SDS011;41357;52.806;18.268;2023-10-13T07:40:34;24.83;;;9.27;;
55497;SDS011;41357;52.806;18.268;2023-10-13T07:43:00;33.15;;;11.25;;
55497;SDS011;41357;52.806;18.268;2023-10-13T07:45:29;21.10;;;10.70;;
55497;SDS011;41357;52.806;18.268;2023-10-13T07:48:05;27.58;;;10.27;;
55497;SDS011;41357;52.806;18.268;2023-10-13T07:50:43;18.42;;;9.68;;
55497;SDS011;41357;52.806;18.268;2023-10-13T07:53:10;24.90;;;10.98;;
55497;SDS011;41357;52.806;18.268;2023-10-13T07:55:51;29.98;;;13.65;;
55497;SDS011;41357;52.806;18.268;2023-10-13T07:58:21;33.90;;;14.10;;
55497;SDS011;41357;52.806;18.268;2023-10-13T08:00:51;34.22;;;15.80;;
55497;SDS011;41357;52.806;18.268;2023-10-13T08:03:40;32.90;;;14.27;;
55497;SDS011;41357;52.806;18.268;2023-10-13T08:06:13;27.58;;;14.18;;
55497;SDS011;41357;52.806;18.268;2023-10-13T08:08:39;31.17;;;11.57;;
55497;SDS011;41357;52.806;18.268;2023-10-13T08:11:09;20.20;;;10.40;;
55497;SDS011;41357;52.806;18.268;2023-10-13T08:14:05;16.77;;;8.77;;
55497;SDS011;41357;52.806;18.268;2023-10-13T08:16:41;20.02;;;7.80;;
55497;SDS011;41357;52.806;18.268;2023-10-13T08:19:13;14.55;;;6.50;;
55497;SDS011;41357;52.806;18.268;2023-10-13T08:21:42;18.80;;;7.43;;
55497;SDS011;41357;52.806;18.268;2023-10-13T08:24:16;15.85;;;7.07;;
55497;SDS011;41357;52.806;18.268;2023-10-13T08:26:51;15.63;;;6.35;;
55497;SDS011;41357;52.806;18.268;2023-10-13T08:29:31;24.17;;;6.05;;
55497;SDS011;41357;52.806;18.268;2023-10-13T08:32:11;20.55;;;5.25;;
55497;SDS011;41357;52.806;18.268;2023-10-13T08:34:53;12.45;;;5.97;;
55497;SDS011;41357;52.806;18.268;2023-10-13T08:37:19;14.35;;;5.93;;
55497;SDS011;41357;52.806;18.268;2023-10-13T08:39:49;14.13;;;6.13;;
55497;SDS011;41357;52.806;18.268;2023-10-13T08:42:36;12.23;;;5.60;;
55497;SDS011;41357;52.806;18.268;2023-10-13T08:47:52;14.13;;;5.50;;
55497;SDS011;41357;52.806;18.268;2023-10-13T08:50:22;23.02;;;7.60;;
55497;SDS011;41357;52.806;18.268;2023-10-13T08:53:02;23.65;;;7.25;;
55497;SDS011;41357;52.806;18.268;2023-10-13T08:55:35;18.25;;;7.97;;
55497;SDS011;41357;52.806;18.268;2023-10-13T08:58:13;23.75;;;8.43;;
55497;SDS011;41357;52.806;18.268;2023-10-13T09:00:42;28.10;;;8.55;;
55497;SDS011;41357;52.806;18.268;2023-10-13T09:03:20;22.77;;;9.18;;
55497;SDS011;41357;52.806;18.268;2023-10-13T09:06:05;24.33;;;9.60;;
55497;SDS011;41357;52.806;18.268;2023-10-13T09:08:34;22.73;;;8.40;;
55497;SDS011;41357;52.806;18.268;2023-10-13T09:11:03;15.60;;;6.18;;
55497;SDS011;41357;52.806;18.268;2023-10-13T09:13:37;18.23;;;6.35;;
55497;SDS011;41357;52.806;18.268;2023-10-13T09:16:10;17.73;;;6.85;;
55497;SDS011;41357;52.806;18.268;2023-10-13T09:18:41;16.73;;;6.78;;
55497;SDS011;41357;52.806;18.268;2023-10-13T09:21:15;14.18;;;6.57;;
55497;SDS011;41357;52.806;18.268;2023-10-13T09:23:55;18.58;;;6.05;;
55497;SDS011;41357;52.806;18.268;2023-10-13T09:26:41;16.73;;;5.35;;
55497;SDS011;41357;52.806;18.268;2023-10-13T09:29:14;19.77;;;6.35;;
55497;SDS011;41357;52.806;18.268;2023-10-13T09:31:43;13.57;;;6.30;;
55497;SDS011;41357;52.806;18.268;2023-10-13T09:34:10;23.67;;;7.25;;
55497;SDS011;41357;52.806;18.268;2023-10-13T09:36:36;25.48;;;9.55;;
55497;SDS011;41357;52.806;18.268;2023-10-13T09:39:03;26.40;;;9.40;;
55497;SDS011;41357;52.806;18.268;2023-10-13T09:41:54;16.98;;;7.80;;
55497;SDS011;41357;52.806;18.268;2023-10-13T09:44:20;29.17;;;10.77;;
55497;SDS011;41357;52.806;18.268;2023-10-13T09:46:46;28.50;;;10.48;;
55497;SDS011;41357;52.806;18.268;2023-10-13T09:49:14;22.10;;;7.80;;
55497;SDS011;41357;52.806;18.268;2023-10-13T09:51:48;18.50;;;7.70;;
55497;SDS011;41357;52.806;18.268;2023-10-13T09:54:25;17.00;;;6.88;;
55497;SDS011;41357;52.806;18.268;2023-10-13T09:57:11;26.50;;;7.03;;
55497;SDS011;41357;52.806;18.268;2023-10-13T09:59:51;24.35;;;6.97;;
55497;SDS011;41357;52.806;18.268;2023-10-13T10:02:18;15.57;;;7.30;;
55497;SDS011;41357;52.806;18.268;2023-10-13T10:04:54;20.90;;;7.18;;
55497;SDS011;41357;52.806;18.268;2023-10-13T10:07:41;12.48;;;5.72;;
55497;SDS011;41357;52.806;18.268;2023-10-13T10:10:09;16.55;;;5.65;;
55497;SDS011;41357;52.806;18.268;2023-10-13T10:12:42;21.00;;;6.55;;
55497;SDS011;41357;52.806;18.268;2023-10-13T10:17:55;16.98;;;5.90;;
55497;SDS011;41357;52.806;18.268;2023-10-13T10:20:28;14.25;;;5.50;;
55497;SDS011;41357;52.806;18.268;2023-10-13T10:23:05;16.10;;;6.13;;
55497;SDS011;41357;52.806;18.268;2023-10-13T10:25:37;10.32;;;5.75;;
55497;SDS011;41357;52.806;18.268;2023-10-13T10:28:09;19.40;;;7.03;;
55497;SDS011;41357;52.806;18.268;2023-10-13T10:30:40;17.15;;;5.97;;
55497;SDS011;41357;52.806;18.268;2023-10-13T10:33:07;13.50;;;5.50;;
55497;SDS011;41357;52.806;18.268;2023-10-13T10:35:41;21.83;;;6.63;;
55497;SDS011;41357;52.806;18.268;2023-10-13T10:40:58;16.25;;;5.95;;
55497;SDS011;41357;52.806;18.268;2023-10-13T10:43:26;13.48;;;6.68;;
55497;SDS011;41357;52.806;18.268;2023-10-13T10:46:01;22.30;;;7.70;;
55497;SDS011;41357;52.806;18.268;2023-10-13T10:48:27;16.83;;;6.65;;
55497;SDS011;41357;52.806;18.268;2023-10-13T10:50:59;19.17;;;6.78;;
55497;SDS011;41357;52.806;18.268;2023-10-13T10:53:33;17.95;;;6.72;;
55497;SDS011;41357;52.806;18.268;2023-10-13T10:56:13;16.65;;;6.47;;
55497;SDS011;41357;52.806;18.268;2023-10-13T10:58:48;19.25;;;7.03;;
55497;SDS011;41357;52.806;18.268;2023-10-13T11:01:20;16.90;;;6.60;;
55497;SDS011;41357;52.806;18.268;2023-10-13T11:04:20;26.85;;;9.02;;
55497;SDS011;41357;52.806;18.268;2023-10-13T11:06:45;15.88;;;7.45;;
55497;SDS011;41357;52.806;18.268;2023-10-13T11:09:11;17.55;;;7.80;;
55497;SDS011;41357;52.806;18.268;2023-10-13T11:11:46;20.05;;;7.40;;
55497;SDS011;41357;52.806;18.268;2023-10-13T11:14:24;17.90;;;8.07;;
55497;SDS011;41357;52.806;18.268;2023-10-13T11:16:51;18.95;;;8.57;;
55497;SDS011;41357;52.806;18.268;2023-10-13T11:22:09;17.55;;;6.25;;
55497;SDS011;41357;52.806;18.268;2023-10-13T11:24:39;12.57;;;6.55;;
55497;SDS011;41357;52.806;18.268;2023-10-13T11:27:16;16.67;;;7.20;;
55497;SDS011;41357;52.806;18.268;2023-10-13T11:29:46;15.88;;;7.43;;
55497;SDS011;41357;52.806;18.268;2023-10-13T11:32:17;17.85;;;7.13;;
55497;SDS011;41357;52.806;18.268;2023-10-13T11:34:45;20.30;;;7.35;;
55497;SDS011;41357;52.806;18.268;2023-10-13T11:37:17;20.85;;;8.18;;
55497;SDS011;41357;52.806;18.268;2023-10-13T11:39:57;13.77;;;8.10;;
55497;SDS011;41357;52.806;18.268;2023-10-13T11:42:23;19.45;;;7.53;;
55497;SDS011;41357;52.806;18.268;2023-10-13T11:44:52;17.52;;;9.00;;
55497;SDS011;41357;52.806;18.268;2023-10-13T11:47:38;17.23;;;9.57;;
55497;SDS011;41357;52.806;18.268;2023-10-13T11:50:13;20.10;;;9.57;;
55497;SDS011;41357;52.806;18.268;2023-10-13T11:52:51;19.73;;;9.65;;
55497;SDS011;41357;52.806;18.268;2023-10-13T11:55:18;19.10;;;9.55;;
55497;SDS011;41357;52.806;18.268;2023-10-13T11:57:44;17.23;;;9.25;;
55497;SDS011;41357;52.806;18.268;2023-10-13T12:00:10;17.20;;;9.68;;
55497;SDS011;41357;52.806;18.268;2023-10-13T12:02:51;19.30;;;9.65;;
55497;SDS011;41357;52.806;18.268;2023-10-13T12:05:32;24.77;;;9.65;;
55497;SDS011;41357;52.806;18.268;2023-10-13T12:08:14;16.00;;;8.43;;
55497;SDS011;41357;52.806;18.268;2023-10-13T12:10:48;11.15;;;8.27;;
55497;SDS011;41357;52.806;18.268;2023-10-13T12:13:24;17.58;;;8.02;;
55497;SDS011;41357;52.806;18.268;2023-10-13T12:15:51;13.20;;;7.63;;
55497;SDS011;41357;52.806;18.268;2023-10-13T12:18:21;16.83;;;8.65;;
55497;SDS011;41357;52.806;18.268;2023-10-13T12:20:48;11.55;;;7.38;;
55497;SDS011;41357;52.806;18.268;2023-10-13T12:23:14;17.85;;;7.57;;
55497;SDS011;41357;52.806;18.268;2023-10-13T12:25:42;14.73;;;7.10;;
55497;SDS011;41357;52.806;18.268;2023-10-13T12:28:22;11.50;;;7.47;;
55497;SDS011;41357;52.806;18.268;2023-10-13T12:30:51;13.93;;;6.82;;
55497;SDS011;41357;52.806;18.268;2023-10-13T12:33:18;11.00;;;6.78;;
55497;SDS011;41357;52.806;18.268;2023-10-13T12:38:35;16.10;;;8.02;;
55497;SDS011;41357;52.806;18.268;2023-10-13T12:41:07;15.80;;;8.13;;
55497;SDS011;41357;52.806;18.268;2023-10-13T12:43:47;17.65;;;7.38;;
55497;SDS011;41357;52.806;18.268;2023-10-13T12:46:27;14.10;;;8.07;;
55497;SDS011;41357;52.806;18.268;2023-10-13T12:49:07;11.67;;;7.50;;
55497;SDS011;41357;52.806;18.268;2023-10-13T12:51:47;13.37;;;7.57;;
55497;SDS011;41357;52.806;18.268;2023-10-13T12:54:16;23.02;;;8.57;;
55497;SDS011;41357;52.806;18.268;2023-10-13T12:56:48;14.50;;;7.50;;
55497;SDS011;41357;52.806;18.268;2023-10-13T12:59:21;14.90;;;8.20;;
55497;SDS011;41357;52.806;18.268;2023-10-13T13:01:51;15.93;;;8.32;;
55497;SDS011;41357;52.806;18.268;2023-10-13T13:04:18;25.50;;;8.30;;
55497;SDS011;41357;52.806;18.268;2023-10-13T13:06:51;13.30;;;8.05;;
55497;SDS011;41357;52.806;18.268;2023-10-13T13:09:18;11.85;;;6.22;;
55497;SDS011;41357;52.806;18.268;2023-10-13T13:11:52;10.18;;;6.22;;
55497;SDS011;41357;52.806;18.268;2023-10-13T13:14:22;11.38;;;6.18;;
55497;SDS011;41357;52.806;18.268;2023-10-13T13:16:54;11.55;;;5.93;;
55497;SDS011;41357;52.806;18.268;2023-10-13T13:19:29;10.05;;;6.03;;
55497;SDS011;41357;52.806;18.268;2023-10-13T13:21:55;16.05;;;6.28;;
55497;SDS011;41357;52.806;18.268;2023-10-13T13:24:21;11.45;;;5.95;;
55497;SDS011;41357;52.806;18.268;2023-10-13T13:26:49;14.93;;;6.65;;
55497;SDS011;41357;52.806;18.268;2023-10-13T13:31:45;10.55;;;5.97;;
55497;SDS011;41357;52.806;18.268;2023-10-13T13:34:11;12.68;;;5.60;;
55497;SDS011;41357;52.806;18.268;2023-10-13T13:36:38;10.55;;;5.53;;
55497;SDS011;41357;52.806;18.268;2023-10-13T13:39:12;13.68;;;6.60;;
55497;SDS011;41357;52.806;18.268;2023-10-13T13:41:43;11.93;;;5.80;;
55497;SDS011;41357;52.806;18.268;2023-10-13T13:44:09;15.48;;;6.00;;
55497;SDS011;41357;52.806;18.268;2023-10-13T13:46:38;13.93;;;7.15;;
55497;SDS011;41357;52.806;18.268;2023-10-13T13:49:08;10.85;;;6.35;;
55497;SDS011;41357;52.806;18.268;2023-10-13T13:51:43;12.27;;;5.88;;
55497;SDS011;41357;52.806;18.268;2023-10-13T13:54:09;11.93;;;6.07;;
55497;SDS011;41357;52.806;18.268;2023-10-13T13:56:35;17.05;;;6.20;;
55497;SDS011;41357;52.806;18.268;2023-10-13T13:59:04;10.27;;;5.70;;
55497;SDS011;41357;52.806;18.268;2023-10-13T14:01:34;14.17;;;7.43;;
55497;SDS011;41357;52.806;18.268;2023-10-13T14:04:02;12.65;;;6.32;;
55497;SDS011;41357;52.806;18.268;2023-10-13T14:06:31;11.32;;;6.55;;
55497;SDS011;41357;52.806;18.268;2023-10-13T14:08:59;13.18;;;7.15;;
55497;SDS011;41357;52.806;18.268;2023-10-13T14:11:29;16.38;;;8.50;;
55497;SDS011;41357;52.806;18.268;2023-10-13T14:14:14;11.50;;;7.55;;
55497;SDS011;41357;52.806;18.268;2023-10-13T14:16:54;23.55;;;10.98;;
55497;SDS011;41357;52.806;18.268;2023-10-13T14:22:05;11.88;;;7.55;;
55497;SDS011;41357;52.806;18.268;2023-10-13T14:24:31;16.27;;;8.30;;
55497;SDS011;41357;52.806;18.268;2023-10-13T14:27:08;16.52;;;8.50;;
55497;SDS011;41357;52.806;18.268;2023-10-13T14:29:40;32.80;;;15.23;;
55497;SDS011;41357;52.806;18.268;2023-10-13T14:32:10;18.40;;;10.23;;
55497;SDS011;41357;52.806;18.268;2023-10-13T14:34:42;18.27;;;8.70;;
55497;SDS011;41357;52.806;18.268;2023-10-13T14:37:08;23.17;;;12.20;;
55497;SDS011;41357;52.806;18.268;2023-10-13T14:39:38;16.42;;;9.45;;
55497;SDS011;41357;52.806;18.268;2023-10-13T14:42:04;13.77;;;8.20;;
55497;SDS011;41357;52.806;18.268;2023-10-13T14:44:33;18.40;;;10.95;;
55497;SDS011;41357;52.806;18.268;2023-10-13T14:47:00;19.45;;;9.65;;
55497;SDS011;41357;52.806;18.268;2023-10-13T14:49:26;17.98;;;11.43;;
55497;SDS011;41357;52.806;18.268;2023-10-13T14:51:53;28.38;;;13.27;;
55497;SDS011;41357;52.806;18.268;2023-10-13T14:54:24;21.58;;;10.90;;
55497;SDS011;41357;52.806;18.268;2023-10-13T14:57:02;19.02;;;9.30;;
55497;SDS011;41357;52.806;18.268;2023-10-13T14:59:29;21.25;;;8.93;;
55497;SDS011;41357;52.806;18.268;2023-10-13T15:02:03;39.40;;;15.85;;
55497;SDS011;41357;52.806;18.268;2023-10-13T15:04:30;25.90;;;12.05;;
55497;SDS011;41357;52.806;18.268;2023-10-13T15:06:59;28.38;;;14.38;;
55497;SDS011;41357;52.806;18.268;2023-10-13T15:09:29;28.73;;;12.25;;
55497;SDS011;41357;52.806;18.268;2023-10-13T15:11:55;33.42;;;16.10;;
55497;SDS011;41357;52.806;18.268;2023-10-13T15:14:21;30.73;;;13.15;;
55497;SDS011;41357;52.806;18.268;2023-10-13T15:16:48;25.90;;;11.52;;
55497;SDS011;41357;52.806;18.268;2023-10-13T15:19:14;22.35;;;9.77;;
55497;SDS011;41357;52.806;18.268;2023-10-13T15:21:43;22.08;;;9.35;;